Terminal Aerodrome Forecast
Issued by NWS Tulsa, OK

Home | Current Version | Previous Version | Text Only | Print | Product List | Glossary On
Versions: 1 2 3 4 5 6 7 8 9 10 11 12 13
999
FTUS44 KTSA 101720
TAFFSM
TAF
KFSM 101720Z 1018/1118 18010KT P6SM SKC
     FM102000 23012G18KT P6SM SKC
     FM110000 27004KT P6SM SKC
     FM110600 VRB03KT P6SM FEW250
     FM111500 01006KT P6SM SCT250=

USA.gov is the U.S. government's official web portal to all federal, state and local government web resources and services.